Time;durP1;ratioP1;P1;durP2;ratioP2;P2;SDS_P1;SDS_P2;PMS_P1;PMS_P2;Temp;Humidity;BMP_temperature;BMP_pressure;BME280_temperature;BME280_humidity;BME280_pressure;Samples;Min_cycle;Max_cycle;Signal;HPM_P1;HPM_P2
2023/05/09 00:00:22;;;;;;;5.00;4.45;;;19.10;99.90;;;;;;4187635;28;20040;-75
2023/05/09 00:02:22;;;;;;;6.25;5.63;;;19.10;99.90;;;;;;4181843;28;20041;-75
2023/05/09 00:04:24;;;;;;;6.40;5.65;;;19.10;99.90;;;;;;4176484;28;20071;-75
2023/05/09 00:06:26;;;;;;;6.18;5.57;;;19.10;99.90;;;;;;4173108;28;20378;-74
2023/05/09 00:08:27;;;;;;;6.85;5.38;;;19.10;99.90;;;;;;4180167;28;20036;-75
2023/05/09 00:10:27;;;;;;;6.97;5.15;;;19.10;99.90;;;;;;4178030;28;20040;-75
2023/05/09 00:12:28;;;;;;;6.72;6.03;;;19.10;99.90;;;;;;4183584;28;20026;-75
2023/05/09 00:14:29;;;;;;;6.15;5.55;;;19.10;99.90;;;;;;4191019;28;20036;-75
2023/05/09 00:16:31;;;;;;;6.70;6.00;;;19.10;99.90;;;;;;4179228;28;20041;-75
2023/05/09 00:18:32;;;;;;;6.13;5.45;;;19.10;99.90;;;;;;4185350;28;20059;-74
2023/05/09 00:20:33;;;;;;;7.78;6.10;;;19.10;99.90;;;;;;4183376;28;20356;-72
2023/05/09 00:22:34;;;;;;;7.82;6.70;;;19.00;99.90;;;;;;4183055;28;20078;-74
2023/05/09 00:24:34;;;;;;;8.95;7.43;;;19.00;99.90;;;;;;4180622;28;20045;-76
2023/05/09 00:26:35;;;;;;;8.38;6.95;;;19.00;99.90;;;;;;4177924;28;20033;-75
2023/05/09 00:28:36;;;;;;;7.10;6.25;;;18.90;99.90;;;;;;4182633;28;20075;-75
2023/05/09 00:30:36;;;;;;;8.93;6.60;;;18.90;99.90;;;;;;4180596;28;20044;-75
2023/05/09 00:32:39;;;;;;;9.18;7.13;;;18.90;99.90;;;;;;4181203;28;20066;-75
2023/05/09 00:34:39;;;;;;;9.00;7.00;;;18.80;99.90;;;;;;4183772;28;20068;-75
2023/05/09 00:36:40;;;;;;;7.40;6.28;;;18.80;99.90;;;;;;4178307;28;20032;-69
2023/05/09 00:38:41;;;;;;;7.65;5.53;;;18.80;99.90;;;;;;4180596;28;20102;-74
2023/05/09 00:40:42;;;;;;;7.15;6.38;;;18.80;99.90;;;;;;4181377;28;20028;-73
2023/05/09 00:42:42;;;;;;;8.20;6.63;;;18.80;99.90;;;;;;4182886;28;20514;-75
2023/05/09 00:44:43;;;;;;;6.88;6.18;;;18.80;99.90;;;;;;4177491;28;20051;-73
2023/05/09 00:46:44;;;;;;;6.63;5.95;;;18.80;99.90;;;;;;4178386;28;20021;-74
2023/05/09 00:48:45;;;;;;;7.68;5.53;;;18.80;99.90;;;;;;4185754;28;20507;-74
2023/05/09 00:50:51;;;;;;;7.45;6.38;;;18.80;99.90;;;;;;4182530;28;20029;-76
2023/05/09 00:52:52;;;;;;;8.75;7.03;;;18.80;99.90;;;;;;4175776;28;20040;-75
2023/05/09 00:54:54;;;;;;;6.85;5.72;;;18.80;99.90;;;;;;4181365;28;20037;-74
2023/05/09 00:56:55;;;;;;;7.72;5.90;;;18.80;99.90;;;;;;4182106;28;20174;-75
2023/05/09 00:58:55;;;;;;;6.55;5.85;;;18.80;99.90;;;;;;4188015;28;20062;-74
2023/05/09 01:00:56;;;;;;;7.53;6.40;;;18.80;99.90;;;;;;4193445;28;20056;-75
2023/05/09 01:02:57;;;;;;;9.15;7.22;;;18.90;99.90;;;;;;4192790;28;20418;-73
2023/05/09 01:04:58;;;;;;;9.23;7.30;;;18.90;99.90;;;;;;4170991;28;20043;-74
2023/05/09 01:07:05;;;;;;;8.48;7.43;;;18.90;99.90;;;;;;4173467;28;20035;-74
2023/05/09 01:09:24;;;;;;;10.57;8.00;;;18.90;99.90;;;;;;4187784;28;20021;-73
2023/05/09 01:11:32;;;;;;;11.27;8.25;;;18.90;99.90;;;;;;4184213;28;20040;-74
2023/05/09 01:13:52;;;;;;;16.25;10.82;;;18.90;99.90;;;;;;4180752;28;20475;-75
2023/05/09 01:16:04;;;;;;;15.02;11.43;;;18.90;99.90;;;;;;4183656;28;20099;-74
2023/05/09 01:18:15;;;;;;;18.25;13.13;;;19.00;99.90;;;;;;4186291;28;20051;-74
2023/05/09 01:20:15;;;;;;;19.10;13.18;;;19.00;99.90;;;;;;4187369;28;20115;-74
2023/05/09 01:22:17;;;;;;;17.90;12.52;;;19.00;99.90;;;;;;4185544;28;20384;-74
2023/05/09 01:25:01;;;;;;;16.75;12.32;;;19.00;99.90;;;;;;4184332;28;20187;-70
2023/05/09 01:27:17;;;;;;;16.70;12.13;;;19.00;99.90;;;;;;4189614;28;20025;-75
2023/05/09 01:29:34;;;;;;;18.15;13.10;;;19.00;99.90;;;;;;4189482;28;20051;-74
2023/05/09 01:31:37;;;;;;;21.08;14.15;;;19.10;99.90;;;;;;4187021;28;20048;-72
2023/05/09 01:33:41;;;;;;;21.38;15.32;;;19.10;99.90;;;;;;4177936;28;20039;-75
2023/05/09 01:35:45;;;;;;;23.88;16.48;;;19.10;99.90;;;;;;4184720;28;20044;-74
2023/05/09 01:37:49;;;;;;;23.80;16.02;;;19.10;99.90;;;;;;4189191;28;20488;-75
2023/05/09 01:39:54;;;;;;;22.15;15.15;;;19.10;99.90;;;;;;4182571;28;20028;-74
2023/05/09 01:41:59;;;;;;;23.70;16.10;;;19.10;99.90;;;;;;4179316;28;20033;-75
2023/05/09 01:44:02;;;;;;;24.42;16.48;;;19.10;99.90;;;;;;4181251;28;20024;-74
2023/05/09 01:46:04;;;;;;;25.88;17.13;;;19.10;99.90;;;;;;4186129;28;20032;-73
2023/05/09 01:48:08;;;;;;;27.08;17.83;;;19.10;99.90;;;;;;4186341;28;20052;-74
2023/05/09 01:50:10;;;;;;;24.48;17.50;;;19.10;99.90;;;;;;4187072;28;20048;-75
2023/05/09 01:52:15;;;;;;;24.55;16.95;;;19.10;99.90;;;;;;4173619;28;20044;-72
2023/05/09 01:54:17;;;;;;;25.73;16.60;;;19.10;99.90;;;;;;4177238;28;20033;-74
2023/05/09 01:56:20;;;;;;;25.10;17.13;;;19.10;99.90;;;;;;4178025;28;20095;-72
2023/05/09 01:58:22;;;;;;;24.42;17.10;;;19.10;99.90;;;;;;4177849;28;20259;-74
2023/05/09 02:00:23;;;;;;;28.20;19.45;;;19.10;99.90;;;;;;4177985;28;20106;-74
2023/05/09 02:02:28;;;;;;;30.23;18.13;;;19.10;99.90;;;;;;4186665;28;20082;-73
2023/05/09 02:04:29;;;;;;;27.70;18.60;;;19.10;99.90;;;;;;4179118;28;20032;-73
2023/05/09 02:06:31;;;;;;;30.45;20.17;;;19.10;99.90;;;;;;4182679;28;20557;-75
2023/05/09 02:08:32;;;;;;;26.40;18.50;;;19.10;99.90;;;;;;4176244;28;20037;-74
2023/05/09 02:10:34;;;;;;;28.92;19.23;;;19.10;99.90;;;;;;4179248;28;20045;-74
2023/05/09 02:12:35;;;;;;;31.60;21.13;;;19.10;99.90;;;;;;4177269;28;20052;-75
2023/05/09 02:14:35;;;;;;;28.85;19.95;;;19.10;99.90;;;;;;4189916;28;20083;-74
2023/05/09 02:16:38;;;;;;;30.25;20.67;;;19.10;99.90;;;;;;4181332;28;20388;-75
2023/05/09 02:18:38;;;;;;;35.25;22.50;;;19.00;99.90;;;;;;4176976;28;20052;-73
2023/05/09 02:20:39;;;;;;;32.47;21.33;;;19.10;99.90;;;;;;4179392;28;20092;-74
2023/05/09 02:22:42;;;;;;;28.13;19.83;;;19.00;99.90;;;;;;4187138;28;20035;-75
2023/05/09 02:24:43;;;;;;;;;;;19.00;99.90;;;;;;4180872;28;20043;-73
2023/05/09 02:26:44;;;;;;;37.60;24.33;;;19.00;99.90;;;;;;4175973;28;19908;-73
2023/05/09 02:28:46;;;;;;;38.50;24.60;;;19.00;99.90;;;;;;4176816;28;20029;-74
2023/05/09 02:30:49;;;;;;;34.35;23.05;;;18.90;99.90;;;;;;4177936;28;20037;-74
2023/05/09 02:32:55;;;;;;;34.72;22.45;;;18.90;99.90;;;;;;4177227;28;20029;-71
2023/05/09 02:34:57;;;;;;;35.70;23.77;;;18.90;99.90;;;;;;4192938;28;20421;-75
2023/05/09 02:36:58;;;;;;;37.13;23.67;;;18.80;99.90;;;;;;4186435;28;20495;-73
2023/05/09 02:39:00;;;;;;;36.97;23.75;;;18.80;99.90;;;;;;4174798;28;20025;-73
2023/05/09 02:41:00;;;;;;;42.65;27.10;;;18.80;99.90;;;;;;4176982;28;20112;-72
2023/05/09 02:43:01;;;;;;;37.35;23.55;;;18.80;99.90;;;;;;4182735;28;20076;-74
2023/05/09 02:45:02;;;;;;;42.40;26.88;;;18.80;99.90;;;;;;4186183;28;20040;-74
2023/05/09 02:47:05;;;;;;;36.17;23.70;;;18.70;99.90;;;;;;4178704;28;20074;-75
2023/05/09 02:49:06;;;;;;;38.80;24.35;;;18.70;99.90;;;;;;4180142;28;20060;-74
2023/05/09 02:51:06;;;;;;;36.00;23.77;;;18.70;99.90;;;;;;4191125;28;20078;-73
2023/05/09 02:53:07;;;;;;;37.95;23.88;;;18.70;99.90;;;;;;4183207;28;20499;-74
2023/05/09 02:55:08;;;;;;;40.38;24.00;;;18.70;99.90;;;;;;4184941;28;20029;-74
2023/05/09 02:57:09;;;;;;;34.00;22.60;;;18.70;99.90;;;;;;4182024;28;20041;-74
2023/05/09 02:59:09;;;;;;;35.83;23.20;;;18.70;99.90;;;;;;4181368;28;20037;-74
2023/05/09 03:01:10;;;;;;;41.17;25.75;;;18.70;99.90;;;;;;4180543;28;20041;-74
2023/05/09 03:03:11;;;;;;;39.08;25.40;;;18.70;99.90;;;;;;4186887;28;20132;-74
2023/05/09 03:05:11;;;;;;;39.80;25.42;;;18.70;99.90;;;;;;4177027;28;20086;-74
2023/05/09 03:07:12;;;;;;;42.10;27.20;;;18.70;99.90;;;;;;4179920;28;20041;-74
2023/05/09 03:09:13;;;;;;;41.72;26.08;;;18.70;99.90;;;;;;4174119;28;20048;-73
2023/05/09 03:11:13;;;;;;;40.58;25.70;;;18.70;99.90;;;;;;4180450;28;20546;-73
2023/05/09 03:13:14;;;;;;;40.10;24.70;;;18.70;99.90;;;;;;4177600;28;20210;-73
2023/05/09 03:15:15;;;;;;;48.25;29.55;;;18.70;99.90;;;;;;4179646;28;20417;-73
2023/05/09 03:17:20;;;;;;;50.65;29.67;;;18.60;99.90;;;;;;4183942;28;20426;-74
2023/05/09 03:19:20;;;;;;;41.50;26.15;;;18.60;99.90;;;;;;4176458;28;20041;-74
2023/05/09 03:21:21;;;;;;;42.92;26.08;;;18.60;99.90;;;;;;4188431;28;20068;-70
2023/05/09 03:23:22;;;;;;;43.88;26.48;;;18.60;99.90;;;;;;4175561;28;20510;-72
2023/05/09 03:25:25;;;;;;;40.13;26.15;;;18.60;99.90;;;;;;4180964;28;20043;-74
2023/05/09 03:27:25;;;;;;;;;;;18.60;99.90;;;;;;4178100;28;20033;-74
2023/05/09 03:29:26;;;;;;;44.35;26.75;;;18.50;99.90;;;;;;4174326;28;19948;-74
2023/05/09 03:31:27;;;;;;;42.70;27.02;;;18.50;99.90;;;;;;4172212;28;20129;-74
2023/05/09 03:33:27;;;;;;;44.53;27.40;;;18.50;99.90;;;;;;4179400;28;21107;-74
2023/05/09 03:35:28;;;;;;;45.90;28.95;;;18.50;99.90;;;;;;4176218;28;20376;-74
2023/05/09 03:37:28;;;;;;;42.67;26.58;;;18.50;99.90;;;;;;4182625;28;20054;-74
2023/05/09 03:39:29;;;;;;;43.63;28.10;;;18.50;99.90;;;;;;4175168;28;20032;-73
2023/05/09 03:41:29;;;;;;;40.17;25.55;;;18.50;99.90;;;;;;4187521;28;20032;-74
2023/05/09 03:43:30;;;;;;;40.95;25.42;;;18.50;99.90;;;;;;4176047;28;20034;-72
2023/05/09 03:45:31;;;;;;;42.92;26.27;;;18.50;99.90;;;;;;4176658;28;20400;-72
2023/05/09 03:47:31;;;;;;;39.22;25.00;;;18.50;99.90;;;;;;4174484;28;20065;-74
2023/05/09 03:49:32;;;;;;;45.05;26.45;;;18.50;99.90;;;;;;4176376;28;20076;-74
2023/05/09 03:51:32;;;;;;;44.83;27.00;;;18.50;99.90;;;;;;4179217;28;20079;-74
2023/05/09 03:53:33;;;;;;;43.80;26.42;;;18.50;99.90;;;;;;4174399;28;20047;-73
2023/05/09 03:55:34;;;;;;;40.33;25.05;;;18.50;99.90;;;;;;4175230;28;20059;-74
2023/05/09 03:57:35;;;;;;;38.15;24.92;;;18.50;99.90;;;;;;4180759;28;20037;-74
2023/05/09 03:59:35;;;;;;;45.72;27.23;;;18.50;99.90;;;;;;4184034;28;20037;-74
2023/05/09 04:01:36;;;;;;;43.13;26.50;;;18.50;99.90;;;;;;4182409;28;20052;-73
2023/05/09 04:03:36;;;;;;;41.08;25.38;;;18.50;99.90;;;;;;4185849;28;20037;-73
2023/05/09 04:05:37;;;;;;;44.95;28.65;;;18.50;99.90;;;;;;4191933;28;20502;-74
2023/05/09 04:07:38;;;;;;;48.85;29.38;;;18.50;99.90;;;;;;4186551;28;20421;-74
2023/05/09 04:09:41;;;;;;;49.42;30.15;;;18.50;99.90;;;;;;4188151;28;20116;-73
2023/05/09 04:11:41;;;;;;;53.83;32.05;;;18.50;99.90;;;;;;4174375;28;20036;-74
2023/05/09 04:13:42;;;;;;;46.25;27.27;;;18.40;99.90;;;;;;4187719;28;20044;-74
2023/05/09 04:15:42;;;;;;;48.10;29.63;;;18.40;99.90;;;;;;4189294;28;20119;-74
2023/05/09 04:17:43;;;;;;;47.08;28.45;;;18.40;99.90;;;;;;4184328;28;20048;-74
2023/05/09 04:19:45;;;;;;;51.55;31.20;;;18.40;99.90;;;;;;4173656;28;20030;-72
2023/05/09 04:21:45;;;;;;;57.07;31.77;;;18.30;99.90;;;;;;4176142;28;20421;-73
2023/05/09 04:23:46;;;;;;;52.40;31.40;;;18.30;99.90;;;;;;4178565;28;20040;-74
2023/05/09 04:25:47;;;;;;;52.67;30.50;;;18.30;99.90;;;;;;4184668;28;20041;-74
2023/05/09 04:27:47;;;;;;;46.75;28.75;;;18.20;99.90;;;;;;4182953;28;20112;-73
2023/05/09 04:29:48;;;;;;;56.13;32.90;;;18.20;99.90;;;;;;4188658;28;20517;-74
2023/05/09 04:31:48;;;;;;;46.65;28.92;;;18.20;99.90;;;;;;4187698;28;20035;-73
2023/05/09 04:33:50;;;;;;;41.42;26.00;;;18.20;99.90;;;;;;4194156;28;20086;-74
2023/05/09 04:35:51;;;;;;;44.05;28.48;;;18.10;99.90;;;;;;4191514;28;20126;-74
2023/05/09 04:37:51;;;;;;;48.55;29.52;;;18.10;99.90;;;;;;4177790;28;20488;-74
2023/05/09 04:39:52;;;;;;;46.67;29.25;;;18.10;99.90;;;;;;4177147;28;20029;-74
2023/05/09 04:41:52;;;;;;;43.72;27.63;;;18.10;99.90;;;;;;4188155;28;20484;-75
2023/05/09 04:43:53;;;;;;;50.88;30.25;;;18.10;99.90;;;;;;4184955;28;20510;-70
2023/05/09 04:45:53;;;;;;;46.45;28.90;;;18.00;99.90;;;;;;4178204;28;20537;-73
2023/05/09 04:47:54;;;;;;;51.05;30.02;;;18.10;99.90;;;;;;4181356;28;20103;-73
2023/05/09 04:49:55;;;;;;;44.05;27.75;;;18.00;99.90;;;;;;4182722;28;20036;-73
2023/05/09 04:51:55;;;;;;;43.90;27.73;;;18.00;99.90;;;;;;4191376;28;20509;-73
2023/05/09 04:53:56;;;;;;;47.22;29.50;;;18.00;99.90;;;;;;4184031;28;20484;-72
2023/05/09 04:55:56;;;;;;;46.35;27.15;;;18.00;99.90;;;;;;4182550;28;20505;-73
2023/05/09 04:57:57;;;;;;;43.20;27.60;;;18.00;99.90;;;;;;4178193;28;20041;-74
2023/05/09 04:59:57;;;;;;;43.50;26.63;;;18.00;99.90;;;;;;4183363;28;20048;-73
2023/05/09 05:01:58;;;;;;;48.88;28.58;;;18.00;99.90;;;;;;4177305;28;20029;-74
2023/05/09 05:03:59;;;;;;;48.15;27.83;;;18.00;99.90;;;;;;4180945;28;20032;-73
2023/05/09 05:05:59;;;;;;;46.25;27.95;;;18.00;99.90;;;;;;4180281;28;20040;-73
2023/05/09 05:08:00;;;;;;;37.78;24.00;;;18.00;99.90;;;;;;4181600;28;20033;-74
2023/05/09 05:10:00;;;;;;;43.05;25.45;;;18.00;99.90;;;;;;4173175;28;20033;-73
2023/05/09 05:12:01;;;;;;;42.83;26.88;;;18.00;99.90;;;;;;4169517;28;20029;-76
2023/05/09 05:14:01;;;;;;;43.10;25.65;;;18.00;99.90;;;;;;4173563;28;20036;-78
2023/05/09 05:16:02;;;;;;;40.70;25.98;;;18.00;99.90;;;;;;4172594;28;20045;-78
2023/05/09 05:18:03;;;;;;;42.72;26.85;;;18.00;99.90;;;;;;4181711;28;20089;-78
2023/05/09 05:20:05;;;;;;;41.90;26.20;;;18.00;99.90;;;;;;4175225;28;20095;-76
2023/05/09 05:22:05;;;;;;;36.65;23.17;;;17.90;99.90;;;;;;4174773;28;20044;-77
2023/05/09 05:24:06;;;;;;;42.45;24.45;;;17.90;99.90;;;;;;4179271;28;20036;-77
2023/05/09 05:26:07;;;;;;;35.53;22.13;;;17.90;99.90;;;;;;4175907;28;20456;-77
2023/05/09 05:28:07;;;;;;;31.65;21.30;;;18.00;99.90;;;;;;4181923;28;20035;-77
2023/05/09 05:30:08;;;;;;;33.70;22.13;;;18.00;99.90;;;;;;4175299;28;20459;-77
2023/05/09 05:32:09;;;;;;;35.45;23.58;;;18.00;99.90;;;;;;4174213;28;21010;-78
2023/05/09 05:34:10;;;;;;;29.52;19.52;;;18.00;99.90;;;;;;4174716;28;20033;-78
2023/05/09 05:36:10;;;;;;;38.85;23.02;;;18.00;99.90;;;;;;4179823;28;20059;-77
2023/05/09 05:38:11;;;;;;;31.17;20.40;;;18.00;99.90;;;;;;4176887;28;20084;-76
2023/05/09 05:40:11;;;;;;;33.55;21.50;;;18.00;99.90;;;;;;4177571;28;20045;-77
2023/05/09 05:42:12;;;;;;;36.03;22.00;;;17.90;99.90;;;;;;4177862;28;20110;-78
2023/05/09 05:44:12;;;;;;;34.85;21.80;;;17.90;99.90;;;;;;4176985;28;20037;-78
2023/05/09 05:46:13;;;;;;;32.05;20.23;;;17.90;99.90;;;;;;4177204;28;20040;-77
2023/05/09 05:48:14;;;;;;;33.53;22.13;;;17.90;99.90;;;;;;4180268;28;20049;-76
2023/05/09 05:50:14;;;;;;;29.95;19.08;;;17.90;99.90;;;;;;4174565;28;20041;-77
2023/05/09 05:52:15;;;;;;;32.13;19.83;;;17.90;99.90;;;;;;4181758;28;20044;-75
2023/05/09 05:54:15;;;;;;;30.63;18.73;;;17.90;99.90;;;;;;4177132;28;20507;-72
2023/05/09 05:56:16;;;;;;;35.22;21.58;;;17.90;99.90;;;;;;4175050;28;20353;-74
2023/05/09 05:58:17;;;;;;;30.27;19.30;;;17.90;99.90;;;;;;4180869;28;20365;-77
2023/05/09 06:00:17;;;;;;;33.42;21.73;;;18.00;99.90;;;;;;4179897;28;20045;-77
2023/05/09 06:02:18;;;;;;;38.83;23.13;;;17.90;99.90;;;;;;4186274;28;20391;-77
2023/05/09 06:04:19;;;;;;;36.60;22.63;;;17.90;99.90;;;;;;4182070;28;20048;-78
2023/05/09 06:06:20;;;;;;;36.67;22.25;;;17.90;99.90;;;;;;4177046;28;20029;-78
2023/05/09 06:08:21;;;;;;;31.33;20.73;;;17.90;99.90;;;;;;4181816;28;20029;-78
2023/05/09 06:10:21;;;;;;;31.33;20.02;;;17.90;99.90;;;;;;4176090;28;20496;-78
2023/05/09 06:12:22;;;;;;;30.65;19.48;;;17.80;99.90;;;;;;4188497;28;20045;-77
2023/05/09 06:14:22;;;;;;;30.20;19.35;;;17.90;99.90;;;;;;4187163;28;20017;-76
2023/05/09 06:16:23;;;;;;;28.50;19.13;;;17.90;99.90;;;;;;4180805;28;20032;-77
2023/05/09 06:18:24;;;;;;;28.08;17.35;;;17.90;99.90;;;;;;4190877;28;20049;-76
2023/05/09 06:20:24;;;;;;;30.58;19.17;;;17.90;99.90;;;;;;4174083;28;20555;-77
2023/05/09 06:22:25;;;;;;;28.02;18.98;;;17.90;99.90;;;;;;4179339;28;20041;-77
2023/05/09 06:24:25;;;;;;;29.55;18.05;;;17.80;99.90;;;;;;4179467;28;20039;-75
2023/05/09 06:26:26;;;;;;;27.98;17.65;;;17.80;99.90;;;;;;4173257;28;20471;-76
2023/05/09 06:28:27;;;;;;;23.80;17.38;;;17.80;99.90;;;;;;4182247;28;20041;-77
2023/05/09 06:30:27;;;;;;;25.90;16.80;;;17.80;99.90;;;;;;4168275;28;20037;-78
2023/05/09 06:32:28;;;;;;;26.33;16.73;;;17.90;99.90;;;;;;4173666;28;20104;-77
2023/05/09 06:34:28;;;;;;;26.83;16.45;;;17.90;99.90;;;;;;4171505;28;20052;-78
2023/05/09 06:36:29;;;;;;;30.42;18.48;;;17.90;99.90;;;;;;4171121;28;20080;-77
2023/05/09 06:38:30;;;;;;;27.27;17.48;;;18.00;99.90;;;;;;4172693;28;20087;-77
2023/05/09 06:40:30;;;;;;;25.92;16.30;;;17.90;99.90;;;;;;4169077;28;20115;-77
2023/05/09 06:42:32;;;;;;;26.67;17.17;;;18.00;99.90;;;;;;4173381;28;20128;-77
2023/05/09 06:44:33;;;;;;;25.93;15.87;;;18.10;99.90;;;;;;4168465;28;20103;-78
2023/05/09 06:46:33;;;;;;;21.42;14.40;;;18.10;99.90;;;;;;4165563;28;20276;-77
2023/05/09 06:48:34;;;;;;;27.10;16.33;;;18.10;99.90;;;;;;4169837;28;20033;-77
2023/05/09 06:50:34;;;;;;;22.60;15.45;;;18.10;99.90;;;;;;4170734;28;20037;-77
2023/05/09 06:52:35;;;;;;;23.08;14.27;;;18.10;99.90;;;;;;4174314;28;20080;-77
2023/05/09 06:54:35;;;;;;;24.00;14.90;;;18.20;99.90;;;;;;4174774;28;20079;-78
2023/05/09 06:56:36;;;;;;;27.85;16.88;;;18.20;99.90;;;;;;4171183;28;21567;-77
2023/05/09 06:58:37;;;;;;;23.52;14.65;;;18.10;99.90;;;;;;4174417;28;20500;-77
2023/05/09 07:00:37;;;;;;;28.25;17.42;;;18.20;99.90;;;;;;4167963;28;20093;-76
2023/05/09 07:02:40;;;;;;;24.55;16.65;;;18.20;99.90;;;;;;4171779;28;20100;-76
2023/05/09 07:04:41;;;;;;;29.13;18.10;;;18.20;99.90;;;;;;4170341;28;20433;-77
2023/05/09 07:06:41;;;;;;;27.90;18.00;;;18.20;99.90;;;;;;4176372;28;20122;-77
2023/05/09 07:08:42;;;;;;;28.08;17.75;;;18.20;99.90;;;;;;4172671;28;20076;-77
2023/05/09 07:10:43;;;;;;;28.23;18.02;;;18.20;99.90;;;;;;4173496;28;20059;-77
2023/05/09 07:12:43;;;;;;;32.70;18.48;;;18.20;99.90;;;;;;4173534;28;20043;-77
2023/05/09 07:14:44;;;;;;;27.88;17.75;;;18.20;99.90;;;;;;4178744;28;20044;-77
2023/05/09 07:16:45;;;;;;;27.52;17.92;;;18.20;99.90;;;;;;4172265;28;20050;-78
2023/05/09 07:18:45;;;;;;;24.10;16.45;;;18.10;99.90;;;;;;4178954;28;20040;-77
2023/05/09 07:20:46;;;;;;;29.70;19.40;;;18.20;99.90;;;;;;4173312;28;20048;-71
2023/05/09 07:22:47;;;;;;;33.92;21.27;;;18.20;99.90;;;;;;4170836;28;20146;-77
2023/05/09 07:24:47;;;;;;;30.83;19.88;;;18.20;99.90;;;;;;4183427;28;20169;-75
2023/05/09 07:26:48;;;;;;;29.77;20.05;;;18.20;99.90;;;;;;4176886;28;20048;-77
2023/05/09 07:28:48;;;;;;;32.17;20.35;;;18.20;99.90;;;;;;4179866;28;20090;-77
2023/05/09 07:30:49;;;;;;;36.78;22.77;;;18.20;99.90;;;;;;4172347;28;20093;-77
2023/05/09 07:32:50;;;;;;;39.40;24.15;;;18.30;99.90;;;;;;4173551;28;20029;-78
2023/05/09 07:34:51;;;;;;;35.28;22.55;;;18.20;99.90;;;;;;4172620;28;20036;-77
2023/05/09 07:36:51;;;;;;;35.47;22.77;;;18.30;99.90;;;;;;4167906;28;20036;-78
2023/05/09 07:38:53;;;;;;;33.75;20.73;;;18.30;99.90;;;;;;4172711;28;20045;-77
2023/05/09 07:40:54;;;;;;;25.08;17.40;;;18.40;99.90;;;;;;4177346;28;20067;-77
2023/05/09 07:42:55;;;;;;;39.03;26.23;;;18.50;99.90;;;;;;4171706;28;20025;-79
2023/05/09 07:44:56;;;;;;;39.85;24.67;;;18.50;99.90;;;;;;4179308;28;21412;-78
2023/05/09 07:46:58;;;;;;;39.38;24.95;;;18.50;99.90;;;;;;4176157;28;20029;-79
2023/05/09 07:48:58;;;;;;;34.70;23.23;;;18.60;99.90;;;;;;4175344;28;20048;-78
2023/05/09 07:50:59;;;;;;;36.97;24.38;;;18.60;99.90;;;;;;4187367;28;20132;-78
2023/05/09 07:53:00;;;;;;;36.10;23.63;;;18.70;99.90;;;;;;4171417;28;20040;-80
2023/05/09 07:55:00;;;;;;;34.15;22.05;;;18.70;99.90;;;;;;4173202;28;20040;-77
2023/05/09 07:57:01;;;;;;;30.00;20.80;;;18.80;99.90;;;;;;4174336;28;20419;-78
2023/05/09 07:59:02;;;;;;;28.88;20.90;;;18.90;99.90;;;;;;4175317;28;20116;-78
2023/05/09 08:01:02;;;;;;;27.38;19.73;;;19.00;99.90;;;;;;4186206;28;20095;-80
2023/05/09 08:03:03;;;;;;;28.70;20.13;;;19.10;99.90;;;;;;4171293;28;20036;-79
2023/05/09 08:05:04;;;;;;;25.90;18.52;;;19.10;99.90;;;;;;4172289;28;20033;-78
2023/05/09 08:07:06;;;;;;;28.27;18.02;;;19.30;99.90;;;;;;4171765;28;20441;-77
2023/05/09 08:09:06;;;;;;;25.42;16.25;;;19.40;99.90;;;;;;4173703;28;20048;-75
2023/05/09 08:11:07;;;;;;;22.98;16.48;;;19.50;99.90;;;;;;4173213;28;20037;-79
2023/05/09 08:13:07;;;;;;;21.73;14.40;;;19.60;99.90;;;;;;4174496;28;20491;-78
2023/05/09 08:15:08;;;;;;;20.67;14.00;;;19.70;99.90;;;;;;4172686;28;20455;-78
2023/05/09 08:17:09;;;;;;;20.10;12.30;;;19.70;99.90;;;;;;4173850;28;20044;-78
2023/05/09 08:19:09;;;;;;;16.48;11.55;;;19.80;99.90;;;;;;4175628;28;20029;-79
2023/05/09 08:21:10;;;;;;;17.17;12.13;;;19.80;99.90;;;;;;4171188;28;20108;-67
2023/05/09 08:23:11;;;;;;;16.08;11.73;;;19.90;99.90;;;;;;4183737;28;20032;-72
2023/05/09 08:25:13;;;;;;;11.93;8.65;;;20.00;99.90;;;;;;4173704;28;20037;-72
2023/05/09 08:27:14;;;;;;;11.57;8.23;;;20.10;99.90;;;;;;4171205;28;20152;-72
2023/05/09 08:29:16;;;;;;;15.00;8.52;;;20.20;99.90;;;;;;4173310;28;21561;-72
2023/05/09 08:31:17;;;;;;;12.73;7.57;;;20.30;99.90;;;;;;4173733;28;20060;-73
2023/05/09 08:33:17;;;;;;;14.15;8.73;;;20.40;99.90;;;;;;4170188;28;20050;-72
2023/05/09 08:35:18;;;;;;;9.23;7.40;;;20.40;99.90;;;;;;4176170;28;20503;-73
2023/05/09 08:37:18;;;;;;;15.18;9.27;;;20.50;99.90;;;;;;4176636;28;20060;-70
2023/05/09 08:39:19;;;;;;;14.27;9.90;;;20.60;99.90;;;;;;4175915;28;20028;-73
2023/05/09 08:41:27;;;;;;;13.63;8.63;;;20.60;99.90;;;;;;4171997;28;20126;-72
2023/05/09 08:43:28;;;;;;;14.15;8.93;;;20.70;99.90;;;;;;4176552;28;20367;-73
2023/05/09 08:45:30;;;;;;;15.98;9.63;;;20.70;99.90;;;;;;4175063;28;20037;-72
2023/05/09 08:47:34;;;;;;;15.43;9.07;;;20.70;99.90;;;;;;4177508;28;20545;-72
2023/05/09 08:49:35;;;;;;;12.85;7.75;;;20.80;99.90;;;;;;4175370;28;20115;-73
2023/05/09 08:51:36;;;;;;;15.00;8.20;;;20.80;99.90;;;;;;4177835;28;20068;-72
2023/05/09 08:53:37;;;;;;;11.25;8.10;;;20.80;99.90;;;;;;4175426;28;20039;-72
2023/05/09 08:55:38;;;;;;;13.52;8.75;;;20.90;99.90;;;;;;4170599;28;20061;-72
2023/05/09 08:57:39;;;;;;;15.73;9.40;;;20.90;99.90;;;;;;4174464;28;20426;-73
2023/05/09 08:59:41;;;;;;;14.63;7.70;;;20.90;99.90;;;;;;4173628;28;20033;-73
2023/05/09 09:01:42;;;;;;;12.38;7.30;;;20.90;99.90;;;;;;4172529;28;20502;-73
2023/05/09 09:03:46;;;;;;;13.40;7.22;;;21.00;99.90;;;;;;4176364;28;20036;-72
2023/05/09 09:05:48;;;;;;;10.98;6.90;;;21.10;99.90;;;;;;4171341;28;20065;-72
2023/05/09 09:07:49;;;;;;;12.68;7.90;;;21.10;99.90;;;;;;4172656;28;20093;-73
2023/05/09 09:09:51;;;;;;;10.05;6.13;;;21.10;99.90;;;;;;4172869;28;20033;-72
2023/05/09 09:11:52;;;;;;;13.73;7.35;;;21.10;99.90;;;;;;4178874;28;20041;-72
2023/05/09 09:13:53;;;;;;;11.65;6.50;;;21.10;99.90;;;;;;4173484;28;20052;-72
2023/05/09 09:15:58;;;;;;;11.80;6.72;;;21.20;99.90;;;;;;4175227;28;20044;-73
2023/05/09 09:18:03;;;;;;;13.07;6.65;;;21.20;99.90;;;;;;4176414;28;20120;-70
2023/05/09 09:20:09;;;;;;;8.40;5.07;;;21.20;99.90;;;;;;4177711;28;20056;-72
2023/05/09 09:22:14;;;;;;;11.65;6.80;;;21.20;99.90;;;;;;4173298;28;20594;-73
2023/05/09 09:24:20;;;;;;;13.32;6.75;;;21.30;99.90;;;;;;4170719;28;20036;-73
2023/05/09 09:26:21;;;;;;;11.48;6.43;;;21.30;99.90;;;;;;4170065;28;20037;-73
2023/05/09 09:28:21;;;;;;;13.43;6.85;;;21.20;99.90;;;;;;4173762;28;20072;-72
2023/05/09 09:30:23;;;;;;;12.70;6.68;;;21.20;99.90;;;;;;4171994;28;20503;-72
2023/05/09 09:32:32;;;;;;;16.50;6.73;;;21.20;99.90;;;;;;4173736;28;20170;-72
2023/05/09 09:34:33;;;;;;;11.27;6.30;;;21.10;99.90;;;;;;4173751;28;20795;-72
2023/05/09 09:36:35;;;;;;;10.02;5.65;;;21.20;99.90;;;;;;4173317;28;20056;-72
2023/05/09 09:38:42;;;;;;;11.25;6.13;;;21.20;99.90;;;;;;4173839;28;20528;-73
2023/05/09 09:40:53;;;;;;;7.75;4.80;;;21.20;99.90;;;;;;4170322;28;20039;-72
2023/05/09 09:42:54;;;;;;;7.95;5.00;;;21.20;99.90;;;;;;4174410;28;20040;-72
2023/05/09 09:45:24;;;;;;;10.95;5.72;;;21.30;99.90;;;;;;4172736;28;20041;-73
2023/05/09 09:47:31;;;;;;;6.28;4.53;;;21.30;99.90;;;;;;4164654;28;20040;-72
2023/05/09 09:49:32;;;;;;;10.73;5.70;;;21.40;99.90;;;;;;4172375;28;20432;-73
2023/05/09 09:51:33;;;;;;;7.40;4.97;;;21.40;99.90;;;;;;4173120;28;20045;-72
2023/05/09 09:53:43;;;;;;;7.97;5.45;;;21.40;99.90;;;;;;4172346;28;20048;-73
2023/05/09 09:55:50;;;;;;;7.72;4.88;;;21.50;99.90;;;;;;4172460;28;20128;-72
2023/05/09 09:57:52;;;;;;;8.25;5.30;;;21.50;99.90;;;;;;4171546;28;20041;-73
2023/05/09 09:59:58;;;;;;;10.18;5.03;;;21.60;99.90;;;;;;4175415;28;20041;-73
2023/05/09 10:02:05;;;;;;;7.10;4.15;;;21.60;99.90;;;;;;4173305;28;20071;-72
2023/05/09 10:04:07;;;;;;;6.20;4.47;;;21.60;99.90;;;;;;4174369;28;20086;-72
2023/05/09 10:06:10;;;;;;;9.50;5.15;;;21.60;99.90;;;;;;4174364;28;20045;-71
2023/05/09 10:08:11;;;;;;;7.75;5.13;;;21.60;99.90;;;;;;4172123;28;20041;-71
2023/05/09 10:10:12;;;;;;;7.57;4.82;;;21.60;99.90;;;;;;4172312;28;20039;-71
2023/05/09 10:12:14;;;;;;;9.30;4.40;;;21.60;99.90;;;;;;4175862;28;20036;-72
2023/05/09 10:14:16;;;;;;;7.97;4.57;;;21.60;99.90;;;;;;4173013;28;20048;-71
2023/05/09 10:16:16;;;;;;;6.97;4.23;;;21.60;99.90;;;;;;4173501;28;20506;-71
2023/05/09 10:18:22;;;;;;;5.97;4.32;;;21.70;99.90;;;;;;4172790;28;20053;-70
2023/05/09 10:20:24;;;;;;;6.63;4.38;;;21.60;99.90;;;;;;4173039;28;20052;-71
2023/05/09 10:22:25;;;;;;;8.13;5.57;;;21.70;99.90;;;;;;4173189;28;20111;-72